Northsea Beta — 9HA2594 — position and weather

sailwx.info

Track history (hours):
 
Tides and Currents Weather Stations Pressure Air Temp Water Temp Dewpoint Dewpoint Depression Visibility Wind Speed Wind Dir Waves Ship Positions

Northsea Beta

Last reported at 2014-Dec-15 02:24 UTC. Time now 2014-Dec-18 16:25 UTC.
Position N 38°45' W 009°56'.

Length 110 m; draft 7.7 m.

Type: Ship (hazmat cat B). MMSI: 248970000.

Date/timePositionNaut miles runAvg speedWind from/ knotsBaromVisibWave heightAir tempDewpointWater temp
2014-Dec-15 02:24N 38°45' W 009°56'5 5.7
2014-Dec-15 01:29N 38°40' W 009°56'5 5.5
2014-Dec-15 00:33N 38°35' W 009°53'6 5.6
2014-Dec-14 23:33N 38°29' W 009°51'6 5.4
2014-Dec-14 22:26N 38°25' W 009°46'5 5.7
2014-Dec-14 21:33N 38°21' W 009°41'6 5.8
2014-Dec-14 20:32N 38°18' W 009°35'7 7.0
2014-Dec-14 19:30N 38°14' W 009°28'7 7.6
2014-Dec-14 18:33N 38°10' W 009°20'8 8.0
2014-Dec-14 17:33N 38°05' W 009°12'8 7.8
2014-Dec-14 16:33N 38°00' W 009°04'7 7.5
2014-Dec-14 15:33N 37°56' W 008°56'3 2.9
2014-Dec-14 14:32N 37°57' W 008°53'0 0.0
2014-Dec-14 13:32N 37°57' W 008°53'0 0.0
2014-Dec-14 12:32N 37°57' W 008°53'0 0.0
2014-Dec-14 11:32N 37°57' W 008°53'0 0.0
2014-Dec-14 10:32N 37°57' W 008°53'0 0.0
2014-Dec-14 09:32N 37°57' W 008°53'0 0.0
2014-Dec-14 08:32N 37°57' W 008°53'0 0.0
2014-Dec-14 07:32N 37°57' W 008°53'0 0.0
2014-Dec-14 06:32N 37°57' W 008°53'0 0.0
2014-Dec-14 05:32N 37°57' W 008°53'0 0.0
2014-Dec-14 04:32N 37°57' W 008°53'0 0.0
2014-Dec-14 03:32N 37°57' W 008°53'0 0.0
2014-Dec-14 02:32N 37°57' W 008°53'0 0.0
2014-Dec-14 01:32N 37°57' W 008°53'0 0.0
2014-Dec-14 00:32N 37°57' W 008°53'0 0.0
2014-Dec-13 23:29N 37°57' W 008°53'0 0.0
2014-Dec-13 22:32N 37°57' W 008°53'0 0.0
2014-Dec-13 21:32N 37°57' W 008°53'0 0.0
2014-Dec-13 20:32N 37°57' W 008°53'0 0.0
2014-Dec-13 19:32N 37°57' W 008°53'0 0.0
2014-Dec-13 18:32N 37°57' W 008°53'0 0.0
2014-Dec-13 17:32N 37°57' W 008°53'0 0.0
2014-Dec-13 16:32N 37°57' W 008°53'0 0.0
2014-Dec-13 15:32N 37°57' W 008°53'0 0.0
2014-Dec-13 14:32N 37°57' W 008°53'0 0.0
2014-Dec-13 13:32N 37°57' W 008°53'0 0.0
2014-Dec-13 12:33N 37°57' W 008°53'2 2.0
2014-Dec-13 11:32N 37°55' W 008°52'0 0.1
2014-Dec-13 10:32N 37°55' W 008°52'7 7.6
2014-Dec-13 09:33N 37°52' W 009°01'1110.6
2014-Dec-13 08:33N 37°50' W 009°14'9 9.0
2014-Dec-13 07:33N 37°59' W 009°17'10 9.4
2014-Dec-13 06:32N 38°06' W 009°26'2110.4
2014-Dec-13 04:33N 38°19' W 009°46'1010.4
2014-Dec-13 03:33N 38°25' W 009°57'13 9.8
2014-Dec-13 02:11N 38°37' W 010°04'  
Track history (hours):
 
Tides and Currents Weather Stations Pressure Air Temp Water Temp Dewpoint Dewpoint Depression Visibility Wind Speed Wind Dir Waves Ship Positions

Northsea Beta

Last reported at 2014-Dec-15 02:24 UTC. Time now 2014-Dec-18 16:25 UTC.
Position N 38°45' W 009°56'.

Length 110 m; draft 7.7 m.

Type: Ship (hazmat cat B). MMSI: 248970000.

Date/timePositionNaut miles runAvg speedWind from/ knotsBaromVisibWave heightAir tempDewpointWater temp
2014-Dec-15 02:24N 38°45' W 009°56'5 5.7
2014-Dec-15 01:29N 38°40' W 009°56'5 5.5
2014-Dec-15 00:33N 38°35' W 009°53'6 5.6
2014-Dec-14 23:33N 38°29' W 009°51'6 5.4
2014-Dec-14 22:26N 38°25' W 009°46'5 5.7
2014-Dec-14 21:33N 38°21' W 009°41'6 5.8
2014-Dec-14 20:32N 38°18' W 009°35'7 7.0
2014-Dec-14 19:30N 38°14' W 009°28'7 7.6
2014-Dec-14 18:33N 38°10' W 009°20'8 8.0
2014-Dec-14 17:33N 38°05' W 009°12'8 7.8
2014-Dec-14 16:33N 38°00' W 009°04'7 7.5
2014-Dec-14 15:33N 37°56' W 008°56'3 2.9
2014-Dec-14 14:32N 37°57' W 008°53'0 0.0
2014-Dec-14 13:32N 37°57' W 008°53'0 0.0
2014-Dec-14 12:32N 37°57' W 008°53'0 0.0
2014-Dec-14 11:32N 37°57' W 008°53'0 0.0
2014-Dec-14 10:32N 37°57' W 008°53'0 0.0
2014-Dec-14 09:32N 37°57' W 008°53'0 0.0
2014-Dec-14 08:32N 37°57' W 008°53'0 0.0
2014-Dec-14 07:32N 37°57' W 008°53'0 0.0
2014-Dec-14 06:32N 37°57' W 008°53'0 0.0
2014-Dec-14 05:32N 37°57' W 008°53'0 0.0
2014-Dec-14 04:32N 37°57' W 008°53'0 0.0
2014-Dec-14 03:32N 37°57' W 008°53'0 0.0
2014-Dec-14 02:32N 37°57' W 008°53'0 0.0
2014-Dec-14 01:32N 37°57' W 008°53'0 0.0
2014-Dec-14 00:32N 37°57' W 008°53'0 0.0
2014-Dec-13 23:29N 37°57' W 008°53'0 0.0
2014-Dec-13 22:32N 37°57' W 008°53'0 0.0
2014-Dec-13 21:32N 37°57' W 008°53'0 0.0
2014-Dec-13 20:32N 37°57' W 008°53'0 0.0
2014-Dec-13 19:32N 37°57' W 008°53'0 0.0
2014-Dec-13 18:32N 37°57' W 008°53'0 0.0
2014-Dec-13 17:32N 37°57' W 008°53'0 0.0
2014-Dec-13 16:32N 37°57' W 008°53'0 0.0
2014-Dec-13 15:32N 37°57' W 008°53'0 0.0
2014-Dec-13 14:32N 37°57' W 008°53'0 0.0
2014-Dec-13 13:32N 37°57' W 008°53'0 0.0
2014-Dec-13 12:33N 37°57' W 008°53'2 2.0
2014-Dec-13 11:32N 37°55' W 008°52'0 0.1
2014-Dec-13 10:32N 37°55' W 008°52'7 7.6
2014-Dec-13 09:33N 37°52' W 009°01'1110.6
2014-Dec-13 08:33N 37°50' W 009°14'9 9.0
2014-Dec-13 07:33N 37°59' W 009°17'10 9.4
2014-Dec-13 06:32N 38°06' W 009°26'2110.4
2014-Dec-13 04:33N 38°19' W 009°46'1010.4
2014-Dec-13 03:33N 38°25' W 009°57'13 9.8
2014-Dec-13 02:11N 38°37' W 010°04'  

Dump ship's entire track history